Asturcon — V7CH7 — position and weather

sailwx.info

Track history (hours):
 
Tides and Currents Weather Stations Pressure Air Temp Water Temp Dewpoint Dewpoint Depression Visibility Wind Speed Wind Dir Waves Ship Positions

Asturcon

Last reported at 2018-Apr-08 14:06 UTC. Time now 2018-May-20 17:54 UTC.
Position N 27°43' W 015°20'.
Warning: this ship's position is 42 days out of date.

Length 180 m; draft 10.3 m.

Type: Cargo ship. MMSI: 538005262.

Date/timePositionNaut miles runAvg speedWind from/ knotsBaromVisibWave heightAir tempDewpointWater temp
2018-Apr-08 14:06N 27°43' W 015°20'212.4
2018-Apr-08 13:58N 27°45' W 015°19'511.8
2018-Apr-08 13:30N 27°50' W 015°17'611.4
2018-Apr-08 13:00N 27°56' W 015°16'611.1
2018-Apr-08 12:30N 28°01' W 015°16'510.6
2018-Apr-08 12:00N 28°04' W 015°21'4 8.1
2018-Apr-08 11:30N 28°07' W 015°24'0 0.3
2018-Apr-08 11:00N 28°07' W 015°24'0 0.0
2018-Apr-08 10:30N 28°07' W 015°24'0 0.0
2018-Apr-08 10:00N 28°07' W 015°24'0 0.0
2018-Apr-08 09:30N 28°07' W 015°24'0 0.0
2018-Apr-08 09:00N 28°07' W 015°24'0 0.0
2018-Apr-08 08:30N 28°07' W 015°24'0 0.0
2018-Apr-08 08:00N 28°07' W 015°24'0 0.0
2018-Apr-08 07:30N 28°07' W 015°24'0 0.0
2018-Apr-08 07:00N 28°07' W 015°24'0 0.0
2018-Apr-08 06:21N 28°07' W 015°24'0 0.0
2018-Apr-08 05:48N 28°07' W 015°24'0 0.0
2018-Apr-08 05:21N 28°07' W 015°24'0 0.0
2018-Apr-08 04:54N 28°07' W 015°24'0 1.2
2018-Apr-08 04:30N 28°07' W 015°24'1 2.4
2018-Apr-08 04:00N 28°07' W 015°23'2 4.3
2018-Apr-08 03:30N 28°08' W 015°21'3 6.9
2018-Apr-08 03:01N 28°12' W 015°20'510.3
2018-Apr-08 02:31N 28°17' W 015°19'611.0
2018-Apr-08 02:00N 28°22' W 015°18'510.9
2018-Apr-08 01:30N 28°28' W 015°17'510.7
2018-Apr-08 01:00N 28°33' W 015°15'510.6
2018-Apr-08 00:31N 28°38' W 015°14'510.7
2018-Apr-08 00:00N 28°43' W 015°13'510.8
2018-Apr-07 23:30N 28°49' W 015°12'510.9
2018-Apr-07 23:00N 28°54' W 015°12'  
2018-Apr-01 07:45N 52°00' W 011°27'410.9
2018-Apr-01 07:22N 52°04' W 011°26'9810.5
2018-Mar-31 22:04N 53°42' W 011°08'110.4
2018-Mar-31 21:59N 53°43' W 011°08'810.6
2018-Mar-31 21:16N 53°50' W 011°07'710.4
2018-Mar-31 20:36N 53°57' W 011°06'1410.4
2018-Mar-31 19:15N 54°11' W 011°01'311.3
2018-Mar-31 18:57N 54°14' W 010°60'611.5
2018-Mar-31 18:24N 54°20' W 010°56'511.4
2018-Mar-31 17:59N 54°25' W 010°54'  
Track history (hours):
 
Tides and Currents Weather Stations Pressure Air Temp Water Temp Dewpoint Dewpoint Depression Visibility Wind Speed Wind Dir Waves Ship Positions

Asturcon

Last reported at 2018-Apr-08 14:06 UTC. Time now 2018-May-20 17:54 UTC.
Position N 27°43' W 015°20'.
Warning: this ship's position is 42 days out of date.

Length 180 m; draft 10.3 m.

Type: Cargo ship. MMSI: 538005262.

Date/timePositionNaut miles runAvg speedWind from/ knotsBaromVisibWave heightAir tempDewpointWater temp
2018-Apr-08 14:06N 27°43' W 015°20'212.4
2018-Apr-08 13:58N 27°45' W 015°19'511.8
2018-Apr-08 13:30N 27°50' W 015°17'611.4
2018-Apr-08 13:00N 27°56' W 015°16'611.1
2018-Apr-08 12:30N 28°01' W 015°16'510.6
2018-Apr-08 12:00N 28°04' W 015°21'4 8.1
2018-Apr-08 11:30N 28°07' W 015°24'0 0.3
2018-Apr-08 11:00N 28°07' W 015°24'0 0.0
2018-Apr-08 10:30N 28°07' W 015°24'0 0.0
2018-Apr-08 10:00N 28°07' W 015°24'0 0.0
2018-Apr-08 09:30N 28°07' W 015°24'0 0.0
2018-Apr-08 09:00N 28°07' W 015°24'0 0.0
2018-Apr-08 08:30N 28°07' W 015°24'0 0.0
2018-Apr-08 08:00N 28°07' W 015°24'0 0.0
2018-Apr-08 07:30N 28°07' W 015°24'0 0.0
2018-Apr-08 07:00N 28°07' W 015°24'0 0.0
2018-Apr-08 06:21N 28°07' W 015°24'0 0.0
2018-Apr-08 05:48N 28°07' W 015°24'0 0.0
2018-Apr-08 05:21N 28°07' W 015°24'0 0.0
2018-Apr-08 04:54N 28°07' W 015°24'0 1.2
2018-Apr-08 04:30N 28°07' W 015°24'1 2.4
2018-Apr-08 04:00N 28°07' W 015°23'2 4.3
2018-Apr-08 03:30N 28°08' W 015°21'3 6.9
2018-Apr-08 03:01N 28°12' W 015°20'510.3
2018-Apr-08 02:31N 28°17' W 015°19'611.0
2018-Apr-08 02:00N 28°22' W 015°18'510.9
2018-Apr-08 01:30N 28°28' W 015°17'510.7
2018-Apr-08 01:00N 28°33' W 015°15'510.6
2018-Apr-08 00:31N 28°38' W 015°14'510.7
2018-Apr-08 00:00N 28°43' W 015°13'510.8
2018-Apr-07 23:30N 28°49' W 015°12'510.9
2018-Apr-07 23:00N 28°54' W 015°12'  
2018-Apr-01 07:45N 52°00' W 011°27'410.9
2018-Apr-01 07:22N 52°04' W 011°26'9810.5
2018-Mar-31 22:04N 53°42' W 011°08'110.4
2018-Mar-31 21:59N 53°43' W 011°08'810.6
2018-Mar-31 21:16N 53°50' W 011°07'710.4
2018-Mar-31 20:36N 53°57' W 011°06'1410.4
2018-Mar-31 19:15N 54°11' W 011°01'311.3
2018-Mar-31 18:57N 54°14' W 010°60'611.5
2018-Mar-31 18:24N 54°20' W 010°56'511.4
2018-Mar-31 17:59N 54°25' W 010°54'  

Dump ship's entire track history